createdAt,value
2023-04-07T00:01:56.808Z,4.81
2023-04-07T00:04:19.713Z,4.89
2023-04-07T00:06:43.615Z,4.88
2023-04-07T00:09:06.730Z,4.91
2023-04-07T00:11:29.480Z,4.89
2023-04-07T00:13:56.065Z,4.78
2023-04-07T00:16:19.070Z,4.87
2023-04-07T00:18:42.050Z,4.70
2023-04-07T00:21:05.035Z,4.65
2023-04-07T00:23:27.907Z,4.67
2023-04-07T00:25:50.749Z,4.70
2023-04-07T00:28:13.345Z,4.71
2023-04-07T00:30:35.990Z,4.70
2023-04-07T00:32:58.669Z,4.61
2023-04-07T00:35:21.555Z,4.67
2023-04-07T00:37:44.112Z,4.60
2023-04-07T00:40:07.356Z,4.62
2023-04-07T00:42:30.396Z,4.62
2023-04-07T00:44:52.983Z,4.60
2023-04-07T00:47:16.719Z,4.67
2023-04-07T00:49:39.614Z,4.53
2023-04-07T00:52:02.293Z,4.67
2023-04-07T00:54:25.182Z,4.71
2023-04-07T00:56:47.772Z,4.72
2023-04-07T00:59:10.728Z,4.82
2023-04-07T01:01:45.082Z,4.81
2023-04-07T01:04:23.350Z,4.77
2023-04-07T01:06:53.670Z,4.85
2023-04-07T01:09:30.854Z,4.75
2023-04-07T01:12:09.832Z,4.87
2023-04-07T01:14:41.092Z,4.88
2023-04-07T01:17:22.237Z,4.81
2023-04-07T01:20:09.027Z,4.84
2023-04-07T01:22:42.227Z,4.95
2023-04-07T01:25:30.626Z,4.89
2023-04-07T01:28:08.534Z,4.85
2023-04-07T01:30:38.164Z,4.98
2023-04-07T01:33:02.525Z,4.99
2023-04-07T01:35:28.190Z,4.96
2023-04-07T01:37:52.711Z,4.92
2023-04-07T01:40:16.397Z,5.06
2023-04-07T01:42:39.901Z,5.02
2023-04-07T01:45:04.419Z,4.95
2023-04-07T01:47:31.275Z,5.00
2023-04-07T01:49:58.313Z,4.99
2023-04-07T01:52:21.777Z,5.00
2023-04-07T01:54:45.576Z,5.00
2023-04-07T01:57:08.189Z,4.85
2023-04-07T01:59:30.965Z,4.98
2023-04-07T02:01:55.547Z,4.92
2023-04-07T02:04:24.337Z,4.85
2023-04-07T02:07:01.007Z,4.91
2023-04-07T02:09:33.478Z,4.84
2023-04-07T02:12:00.012Z,4.74
2023-04-07T02:14:25.994Z,4.64
2023-04-07T02:16:57.898Z,4.74
2023-04-07T02:19:21.222Z,4.70
2023-04-07T02:21:45.759Z,4.58
2023-04-07T02:24:11.310Z,4.67
2023-04-07T02:26:36.281Z,4.65
2023-04-07T02:28:58.968Z,4.70
2023-04-07T02:31:21.639Z,4.61
2023-04-07T02:33:44.312Z,4.60
2023-04-07T02:36:08.401Z,4.64
2023-04-07T02:38:32.186Z,4.62
2023-04-07T02:40:56.070Z,4.60
2023-04-07T02:43:21.251Z,4.43
2023-04-07T02:45:46.369Z,4.49
2023-04-07T02:48:09.392Z,4.56
2023-04-07T02:50:32.917Z,4.60
2023-04-07T02:52:55.609Z,4.39
2023-04-07T02:55:18.664Z,4.36
2023-04-07T02:57:41.425Z,4.32
2023-04-07T03:00:11.265Z,4.30
2023-04-07T03:03:00.497Z,4.36
2023-04-07T03:05:26.892Z,4.33
2023-04-07T03:07:49.879Z,4.22
2023-04-07T03:10:12.953Z,4.28
2023-04-07T03:12:35.779Z,4.24
2023-04-07T03:14:58.766Z,4.29
2023-04-07T03:17:21.998Z,4.34
2023-04-07T03:19:47.165Z,4.26
2023-04-07T03:22:09.873Z,4.10
2023-04-07T03:24:41.207Z,4.01
2023-04-07T03:27:04.039Z,3.91
2023-04-07T03:29:41.532Z,3.82
2023-04-07T03:32:07.426Z,3.86
2023-04-07T03:34:30.029Z,3.86
2023-04-07T03:36:54.536Z,3.99
2023-04-07T03:39:17.266Z,4.01
2023-04-07T03:41:40.390Z,4.06
2023-04-07T03:44:03.197Z,4.07
2023-04-07T03:46:28.207Z,4.03
2023-04-07T03:48:51.679Z,4.05
2023-04-07T03:51:17.369Z,4.05
2023-04-07T03:53:42.448Z,4.06
2023-04-07T03:56:27.484Z,4.09
2023-04-07T03:58:51.281Z,4.22
2023-04-07T04:01:22.434Z,4.17
2023-04-07T04:03:47.486Z,4.20
2023-04-07T04:06:18.848Z,4.34
2023-04-07T04:08:42.459Z,4.39
2023-04-07T04:11:05.638Z,4.36
2023-04-07T04:13:36.364Z,4.44
2023-04-07T04:16:00.988Z,4.44
2023-04-07T04:18:23.862Z,4.36
2023-04-07T04:20:50.735Z,4.57
2023-04-07T04:23:13.359Z,4.60
2023-04-07T04:25:39.754Z,4.62
2023-04-07T04:28:05.666Z,4.75
2023-04-07T04:30:28.535Z,4.62
2023-04-07T04:32:55.784Z,4.70
2023-04-07T04:35:27.342Z,4.79
2023-04-07T04:38:03.349Z,4.93
2023-04-07T04:40:26.669Z,4.85
2023-04-07T04:42:49.663Z,4.91
2023-04-07T04:45:13.882Z,4.89
2023-04-07T04:47:43.335Z,4.92
2023-04-07T04:50:07.528Z,4.85
2023-04-07T04:52:33.196Z,4.82
2023-04-07T04:54:55.950Z,4.98
2023-04-07T04:57:19.500Z,4.98
2023-04-07T04:59:42.937Z,5.06
2023-04-07T05:02:06.138Z,5.15
2023-04-07T05:04:29.052Z,5.27
2023-04-07T05:07:08.694Z,5.27
2023-04-07T05:09:36.953Z,5.26
2023-04-07T05:11:59.990Z,5.18
2023-04-07T05:14:24.733Z,5.13
2023-04-07T05:16:54.433Z,5.05
2023-04-07T05:19:21.613Z,4.96
2023-04-07T05:21:45.679Z,5.08
2023-04-07T05:24:09.490Z,5.22
2023-04-07T05:26:32.930Z,5.22
2023-04-07T05:28:57.767Z,5.33
2023-04-07T05:31:21.544Z,5.35
2023-04-07T05:33:47.735Z,5.33
2023-04-07T05:36:10.869Z,5.40
2023-04-07T05:38:36.935Z,5.46
2023-04-07T05:41:05.977Z,5.57
2023-04-07T05:43:31.280Z,5.70
2023-04-07T05:45:54.345Z,5.68
2023-04-07T05:48:17.750Z,5.67
2023-04-07T05:50:43.477Z,5.83
2023-04-07T05:53:09.533Z,5.87
2023-04-07T05:55:32.109Z,5.97
2023-04-07T05:57:54.942Z,6.08
2023-04-07T06:00:21.687Z,6.02
2023-04-07T06:02:55.542Z,5.99
2023-04-07T06:05:18.516Z,5.91
2023-04-07T06:07:42.750Z,5.94
2023-04-07T06:10:07.629Z,6.02
2023-04-07T06:12:30.862Z,5.79
2023-04-07T06:14:55.603Z,5.70
2023-04-07T06:17:18.329Z,5.50
2023-04-07T06:19:42.933Z,5.51
2023-04-07T06:22:05.548Z,5.58
2023-04-07T06:24:28.378Z,5.56
2023-04-07T06:26:55.134Z,5.35
2023-04-07T06:29:17.837Z,5.48
2023-04-07T06:31:41.088Z,5.56
2023-04-07T06:34:03.750Z,5.67
2023-04-07T06:36:27.741Z,5.74
2023-04-07T06:38:51.113Z,5.94
2023-04-07T06:41:17.070Z,5.97
2023-04-07T06:43:39.849Z,5.94
2023-04-07T06:46:03.926Z,5.85
2023-04-07T06:48:26.493Z,5.92
2023-04-07T06:50:52.273Z,6.06
2023-04-07T06:53:15.047Z,5.99
2023-04-07T06:55:37.614Z,6.16
2023-04-07T06:58:00.419Z,6.15
2023-04-07T07:00:23.178Z,6.32
2023-04-07T07:02:45.955Z,6.32
2023-04-07T07:05:08.860Z,6.46
2023-04-07T07:07:31.557Z,6.43
2023-04-07T07:09:55.632Z,6.33
2023-04-07T07:12:18.360Z,6.46
2023-04-07T07:14:40.971Z,6.37
2023-04-07T07:17:03.606Z,6.49
2023-04-07T07:19:26.349Z,6.67
2023-04-07T07:21:49.106Z,6.66
2023-04-07T07:24:11.798Z,6.60
2023-04-07T07:26:34.424Z,6.58
2023-04-07T07:28:57.120Z,6.49
2023-04-07T07:31:20.115Z,6.49
2023-04-07T07:33:44.307Z,6.54
2023-04-07T07:36:08.208Z,6.60
2023-04-07T07:38:31.011Z,6.63
2023-04-07T07:40:53.942Z,6.28
2023-04-07T07:43:18.071Z,6.37
2023-04-07T07:45:40.893Z,6.33
2023-04-07T07:48:03.703Z,6.29
2023-04-07T07:50:26.634Z,6.34
2023-04-07T07:52:49.302Z,6.46
2023-04-07T07:55:12.227Z,6.40
2023-04-07T07:57:34.918Z,6.42
2023-04-07T07:59:58.102Z,6.08
2023-04-07T08:02:20.945Z,6.06
2023-04-07T08:04:43.556Z,6.08
2023-04-07T08:07:06.511Z,6.21
2023-04-07T08:09:29.457Z,6.25
2023-04-07T08:11:53.106Z,6.28
2023-04-07T08:14:16.243Z,6.28
2023-04-07T08:16:38.918Z,6.29
2023-04-07T08:19:01.884Z,6.37
2023-04-07T08:21:24.631Z,6.39
2023-04-07T08:23:47.473Z,6.58
2023-04-07T08:26:10.381Z,6.25
2023-04-07T08:28:33.301Z,6.57
2023-04-07T08:30:56.183Z,7.18
2023-04-07T08:33:24.595Z,7.37
2023-04-07T08:35:47.661Z,7.74
2023-04-07T08:38:10.845Z,7.78
2023-04-07T08:40:34.492Z,7.85
2023-04-07T08:42:59.477Z,7.97
2023-04-07T08:45:22.489Z,7.95
2023-04-07T08:47:48.080Z,8.05
2023-04-07T08:50:12.164Z,8.15
2023-04-07T08:52:41.328Z,8.21
2023-04-07T08:55:04.475Z,8.33
2023-04-07T08:57:32.362Z,7.99
2023-04-07T09:00:00.764Z,7.97
2023-04-07T09:02:24.038Z,7.56
2023-04-07T09:04:47.095Z,7.40
2023-04-07T09:07:09.781Z,7.46
2023-04-07T09:09:32.488Z,7.69
2023-04-07T09:11:55.594Z,8.26
2023-04-07T09:14:18.851Z,8.39
2023-04-07T09:16:42.028Z,8.56
2023-04-07T09:19:04.900Z,8.43
2023-04-07T09:21:46.775Z,8.62
2023-04-07T09:24:26.964Z,8.88
2023-04-07T09:26:49.682Z,8.84
2023-04-07T09:29:21.744Z,8.84
2023-04-07T09:31:52.076Z,8.54
2023-04-07T09:34:36.157Z,8.97
2023-04-07T09:36:59.288Z,8.85
2023-04-07T09:39:22.110Z,9.00
2023-04-07T09:41:45.213Z,9.03
2023-04-07T09:44:08.018Z,8.98
2023-04-07T09:46:30.805Z,8.67
2023-04-07T09:49:08.283Z,8.06
2023-04-07T09:51:31.197Z,8.01
2023-04-07T09:53:53.790Z,7.95
2023-04-07T09:56:19.388Z,7.69
2023-04-07T09:58:44.331Z,8.02
2023-04-07T10:01:09.540Z,8.52
2023-04-07T10:03:34.014Z,9.15
2023-04-07T10:05:57.330Z,9.29
2023-04-07T10:08:20.783Z,9.52
2023-04-07T10:10:44.009Z,9.73
2023-04-07T10:13:06.977Z,9.91
2023-04-07T10:15:30.683Z,9.98
2023-04-07T10:17:54.560Z,10.17
2023-04-07T10:20:21.008Z,10.51
2023-04-07T10:22:45.840Z,10.22
2023-04-07T10:25:11.727Z,10.22
2023-04-07T10:27:38.992Z,10.20
2023-04-07T10:30:06.060Z,10.00
2023-04-07T10:32:32.094Z,10.17
2023-04-07T10:34:54.789Z,10.04
2023-04-07T10:37:21.144Z,9.67
2023-04-07T10:39:44.147Z,9.50
2023-04-07T10:42:07.035Z,9.28
2023-04-07T10:44:38.828Z,9.62
2023-04-07T10:47:01.396Z,9.43
2023-04-07T10:49:24.082Z,9.43
2023-04-07T10:52:09.663Z,9.22
2023-04-07T10:54:32.289Z,9.28
2023-04-07T10:57:03.758Z,9.28
2023-04-07T10:59:27.926Z,9.29
2023-04-07T11:02:12.707Z,9.24
2023-04-07T11:04:39.350Z,9.17
2023-04-07T11:07:02.165Z,9.27
2023-04-07T11:09:25.884Z,9.15
2023-04-07T11:11:48.831Z,9.32
2023-04-07T11:14:12.034Z,9.43
2023-04-07T11:16:37.475Z,9.25
2023-04-07T11:19:00.108Z,9.25
2023-04-07T11:21:23.312Z,9.24
2023-04-07T11:23:48.476Z,9.28
2023-04-07T11:26:13.962Z,9.50
2023-04-07T11:28:52.944Z,9.57
2023-04-07T11:31:23.416Z,10.17
2023-04-07T11:33:53.886Z,10.44
2023-04-07T11:36:26.927Z,10.21
2023-04-07T11:38:49.666Z,10.30
2023-04-07T11:41:14.369Z,10.49
2023-04-07T11:43:37.895Z,10.22
2023-04-07T11:46:17.537Z,10.70
2023-04-07T11:48:42.361Z,11.13
2023-04-07T11:51:05.662Z,11.14
2023-04-07T11:53:33.952Z,11.14
2023-04-07T11:56:09.544Z,11.10
2023-04-07T11:58:32.612Z,10.75
2023-04-07T12:00:59.481Z,9.94
2023-04-07T12:03:22.610Z,9.49
2023-04-07T12:05:45.968Z,9.38
2023-04-07T12:08:08.693Z,9.46
2023-04-07T12:10:33.414Z,9.36
2023-04-07T12:12:58.108Z,9.39
2023-04-07T12:15:22.654Z,9.55
2023-04-07T12:17:47.695Z,9.53
2023-04-07T12:20:13.627Z,9.65
2023-04-07T12:22:36.565Z,9.49
2023-04-07T12:24:59.113Z,9.48
2023-04-07T12:27:32.530Z,9.66
2023-04-07T12:30:04.304Z,9.53
2023-04-07T12:32:27.205Z,9.69
2023-04-07T12:34:49.960Z,9.60
2023-04-07T12:37:12.625Z,9.76
2023-04-07T12:39:36.878Z,9.55
2023-04-07T12:41:59.767Z,9.59
2023-04-07T12:44:22.385Z,9.83
2023-04-07T12:46:45.531Z,10.15
2023-04-07T12:49:08.837Z,10.28
2023-04-07T12:51:33.571Z,10.08
2023-04-07T12:53:56.255Z,10.28
2023-04-07T12:56:18.849Z,10.24
2023-04-07T12:58:41.571Z,10.27
2023-04-07T13:01:04.589Z,10.41
2023-04-07T13:03:27.586Z,10.38
2023-04-07T13:05:50.531Z,10.45
2023-04-07T13:08:13.552Z,10.44
2023-04-07T13:10:38.271Z,10.66
2023-04-07T13:13:01.172Z,10.70
2023-04-07T13:15:24.726Z,10.46
2023-04-07T13:17:47.646Z,10.35
2023-04-07T13:20:11.072Z,10.34
2023-04-07T13:22:36.249Z,10.55
2023-04-07T13:25:00.729Z,10.61
2023-04-07T13:27:23.629Z,10.42
2023-04-07T13:29:49.159Z,10.25
2023-04-07T13:32:15.550Z,10.37
2023-04-07T13:34:38.500Z,9.94
2023-04-07T13:37:05.671Z,9.98
2023-04-07T13:39:28.491Z,9.84
2023-04-07T13:41:51.371Z,9.82
2023-04-07T13:44:14.034Z,9.63
2023-04-07T13:46:36.908Z,9.57
2023-04-07T13:48:59.525Z,9.59
2023-04-07T13:51:22.287Z,9.55
2023-04-07T13:53:45.719Z,9.40
2023-04-07T13:56:09.737Z,9.69
2023-04-07T13:58:32.327Z,9.69
2023-04-07T14:00:55.254Z,9.73
2023-04-07T14:03:18.170Z,9.52
2023-04-07T14:05:40.917Z,9.38
2023-04-07T14:08:03.698Z,9.48
2023-04-07T14:10:27.439Z,9.57
2023-04-07T14:12:49.967Z,9.43
2023-04-07T14:15:12.611Z,9.42
2023-04-07T14:17:35.737Z,8.91
2023-04-07T14:19:59.837Z,8.90
2023-04-07T14:22:22.475Z,8.49
2023-04-07T14:24:45.328Z,8.46
2023-04-07T14:27:07.930Z,8.04
2023-04-07T14:29:30.866Z,7.85
2023-04-07T14:31:53.499Z,7.67
2023-04-07T14:34:16.524Z,7.55
2023-04-07T14:36:39.227Z,7.49
2023-04-07T14:39:02.336Z,7.46
2023-04-07T14:41:25.063Z,7.45
2023-04-07T14:43:51.068Z,7.52
2023-04-07T14:46:15.746Z,7.57
2023-04-07T14:48:39.176Z,7.62
2023-04-07T14:51:08.794Z,7.81
2023-04-07T14:53:32.740Z,7.81
2023-04-07T14:55:56.174Z,7.81
2023-04-07T14:58:18.752Z,7.84
2023-04-07T15:00:41.518Z,7.80
2023-04-07T15:03:04.754Z,7.74
2023-04-07T15:05:30.274Z,7.95
2023-04-07T15:07:52.970Z,7.95
2023-04-07T15:10:17.209Z,7.91
2023-04-07T15:12:39.813Z,7.94
2023-04-07T15:15:02.581Z,8.05
2023-04-07T15:17:33.345Z,7.88
2023-04-07T15:20:06.423Z,7.78
2023-04-07T15:22:30.801Z,7.84
2023-04-07T15:24:54.204Z,7.91
2023-04-07T15:27:16.802Z,7.85
2023-04-07T15:29:42.291Z,7.98
2023-04-07T15:32:05.601Z,8.11
2023-04-07T15:34:28.263Z,8.15
2023-04-07T15:36:50.850Z,7.95
2023-04-07T15:39:15.019Z,7.87
2023-04-07T15:41:38.107Z,7.84
2023-04-07T15:44:01.372Z,7.88
2023-04-07T15:46:23.904Z,7.77
2023-04-07T15:48:47.829Z,7.71
2023-04-07T15:51:10.574Z,7.78
2023-04-07T15:53:33.324Z,7.63
2023-04-07T15:55:56.049Z,7.59
2023-04-07T15:58:18.689Z,7.57
2023-04-07T16:00:41.891Z,7.62
2023-04-07T16:03:05.732Z,7.56
2023-04-07T16:05:29.087Z,7.57
2023-04-07T16:07:51.784Z,7.64
2023-04-07T16:10:14.643Z,7.74
2023-04-07T16:12:37.986Z,7.49
2023-04-07T16:15:01.103Z,7.49
2023-04-07T16:17:23.919Z,7.40
2023-04-07T16:19:46.760Z,7.53
2023-04-07T16:22:09.984Z,7.60
2023-04-07T16:24:32.649Z,7.67
2023-04-07T16:26:55.964Z,7.59
2023-04-07T16:29:19.802Z,7.63
2023-04-07T16:31:44.296Z,7.59
2023-04-07T16:34:07.368Z,7.53
2023-04-07T16:36:29.927Z,7.56
2023-04-07T16:38:52.624Z,7.50
2023-04-07T16:41:15.601Z,7.55
2023-04-07T16:43:38.150Z,7.40
2023-04-07T16:46:01.734Z,7.29
2023-04-07T16:48:24.628Z,7.25
2023-04-07T16:50:47.326Z,7.26
2023-04-07T16:53:10.012Z,7.36
2023-04-07T16:55:36.310Z,7.39
2023-04-07T16:57:59.520Z,7.35
2023-04-07T17:00:22.421Z,7.47
2023-04-07T17:02:45.124Z,7.43
2023-04-07T17:05:08.200Z,7.60
2023-04-07T17:07:31.130Z,7.50
2023-04-07T17:09:54.950Z,7.46
2023-04-07T17:12:17.563Z,7.43
2023-04-07T17:14:40.281Z,7.28
2023-04-07T17:17:02.988Z,7.20
2023-04-07T17:19:25.772Z,7.20
2023-04-07T17:21:48.755Z,7.20
2023-04-07T17:24:13.000Z,7.32
2023-04-07T17:26:35.629Z,7.18
2023-04-07T17:28:58.876Z,7.11
2023-04-07T17:31:21.491Z,7.30
2023-04-07T17:33:44.253Z,7.33
2023-04-07T17:36:07.180Z,7.30
2023-04-07T17:38:31.078Z,7.36
2023-04-07T17:40:58.516Z,7.39
2023-04-07T17:43:21.963Z,7.35
2023-04-07T17:45:45.647Z,7.35
2023-04-07T17:48:12.068Z,7.47
2023-04-07T17:50:35.474Z,7.47
2023-04-07T17:53:00.429Z,7.43
2023-04-07T17:55:23.355Z,7.50
2023-04-07T17:57:45.944Z,7.39
2023-04-07T18:00:09.207Z,7.35
2023-04-07T18:02:40.403Z,7.19
2023-04-07T18:05:06.787Z,7.23
2023-04-07T18:07:29.891Z,7.35
2023-04-07T18:09:54.333Z,7.30
2023-04-07T18:12:17.516Z,7.37
2023-04-07T18:14:40.243Z,7.32
2023-04-07T18:17:02.826Z,7.28
2023-04-07T18:19:25.693Z,7.25
2023-04-07T18:21:49.935Z,7.25
2023-04-07T18:24:14.449Z,7.16
2023-04-07T18:26:37.871Z,7.18
2023-04-07T18:29:01.558Z,7.12
2023-04-07T18:31:24.198Z,7.02
2023-04-07T18:33:47.095Z,7.07
2023-04-07T18:36:09.947Z,7.02
2023-04-07T18:38:32.823Z,6.94
2023-04-07T18:40:55.540Z,6.99
2023-04-07T18:43:18.157Z,6.85
2023-04-07T18:45:40.730Z,6.76
2023-04-07T18:48:03.666Z,6.83
2023-04-07T18:50:26.611Z,6.83
2023-04-07T18:52:49.351Z,6.80
2023-04-07T18:55:11.996Z,6.81
2023-04-07T18:57:34.912Z,6.99
2023-04-07T18:59:58.605Z,7.01
2023-04-07T19:02:21.516Z,6.83
2023-04-07T19:04:44.595Z,6.78
2023-04-07T19:07:07.202Z,6.69
2023-04-07T19:09:30.303Z,6.69
2023-04-07T19:11:53.637Z,6.70
2023-04-07T19:14:16.729Z,6.81
2023-04-07T19:16:39.740Z,6.71
2023-04-07T19:19:02.908Z,6.77
2023-04-07T19:21:25.696Z,6.70
2023-04-07T19:23:48.896Z,6.74
2023-04-07T19:26:13.025Z,6.78
2023-04-07T19:28:35.729Z,6.73
2023-04-07T19:30:58.729Z,6.71
2023-04-07T19:33:21.645Z,6.77
2023-04-07T19:35:44.362Z,6.78
2023-04-07T19:38:07.338Z,6.69
2023-04-07T19:40:31.437Z,6.64
2023-04-07T19:42:56.183Z,6.66
2023-04-07T19:45:19.062Z,6.69
2023-04-07T19:47:42.560Z,6.64
2023-04-07T19:50:06.140Z,6.63
2023-04-07T19:52:31.176Z,6.63
2023-04-07T19:54:53.957Z,6.77
2023-04-07T19:57:16.568Z,6.63
2023-04-07T19:59:39.911Z,6.49
2023-04-07T20:02:02.597Z,6.40
2023-04-07T20:04:25.261Z,6.42
2023-04-07T20:06:47.898Z,6.32
2023-04-07T20:09:11.123Z,6.30
2023-04-07T20:11:33.755Z,6.37
2023-04-07T20:13:56.421Z,6.30
2023-04-07T20:16:19.024Z,6.34
2023-04-07T20:18:41.743Z,6.37
2023-04-07T20:21:07.568Z,6.43
2023-04-07T20:23:30.529Z,6.32
2023-04-07T20:25:53.179Z,6.26
2023-04-07T20:28:16.450Z,6.19
2023-04-07T20:30:40.593Z,6.19
2023-04-07T20:33:03.395Z,6.13
2023-04-07T20:35:26.256Z,6.12
2023-04-07T20:37:48.899Z,6.11
2023-04-07T20:40:13.503Z,6.08
2023-04-07T20:42:38.122Z,6.02
2023-04-07T20:45:03.810Z,6.02
2023-04-07T20:47:26.586Z,5.98
2023-04-07T20:49:53.119Z,6.01
2023-04-07T20:52:16.145Z,6.04
2023-04-07T20:54:38.746Z,5.99
2023-04-07T20:57:02.309Z,6.06
2023-04-07T20:59:25.080Z,6.15
2023-04-07T21:01:47.993Z,6.04
2023-04-07T21:04:11.515Z,6.05
2023-04-07T21:06:34.223Z,6.06
2023-04-07T21:08:56.944Z,5.97
2023-04-07T21:11:19.854Z,5.99
2023-04-07T21:13:42.600Z,5.97
2023-04-07T21:16:05.760Z,5.92
2023-04-07T21:18:28.606Z,5.91
2023-04-07T21:20:51.516Z,5.88
2023-04-07T21:23:14.235Z,5.79
2023-04-07T21:25:38.173Z,5.87
2023-04-07T21:28:00.859Z,5.81
2023-04-07T21:30:24.440Z,5.74
2023-04-07T21:32:47.269Z,5.68
2023-04-07T21:35:09.892Z,5.79
2023-04-07T21:37:32.550Z,5.81
2023-04-07T21:39:55.752Z,5.74
2023-04-07T21:42:18.472Z,5.60
2023-04-07T21:44:41.129Z,5.67
2023-04-07T21:47:03.719Z,5.68
2023-04-07T21:49:26.520Z,5.67
2023-04-07T21:51:49.356Z,5.57
2023-04-07T21:54:12.584Z,5.43
2023-04-07T21:56:35.210Z,5.40
2023-04-07T21:58:58.690Z,5.42
2023-04-07T22:01:21.307Z,5.43
2023-04-07T22:03:45.775Z,5.29
2023-04-07T22:06:08.640Z,5.25
2023-04-07T22:08:31.414Z,5.23
2023-04-07T22:10:59.242Z,5.18
2023-04-07T22:13:21.880Z,5.23
2023-04-07T22:15:45.506Z,5.16
2023-04-07T22:18:08.240Z,5.18
2023-04-07T22:20:30.874Z,5.18
2023-04-07T22:22:57.444Z,5.20
2023-04-07T22:25:20.600Z,5.16
2023-04-07T22:27:43.222Z,5.15
2023-04-07T22:30:10.009Z,5.11
2023-04-07T22:32:34.493Z,5.11
2023-04-07T22:34:57.932Z,5.22
2023-04-07T22:37:20.564Z,5.16
2023-04-07T22:39:45.671Z,5.05
2023-04-07T22:42:08.548Z,5.00
2023-04-07T22:44:31.271Z,4.96
2023-04-07T22:46:53.977Z,5.04
2023-04-07T22:49:16.769Z,4.98
2023-04-07T22:51:39.539Z,4.92
2023-04-07T22:54:02.198Z,4.88
2023-04-07T22:56:25.488Z,4.89
2023-04-07T22:58:48.575Z,4.99
2023-04-07T23:01:14.759Z,5.00
2023-04-07T23:03:37.446Z,4.96
2023-04-07T23:06:01.373Z,4.96
2023-04-07T23:08:24.523Z,4.98
2023-04-07T23:10:47.642Z,4.92
2023-04-07T23:13:10.358Z,4.96
2023-04-07T23:15:35.852Z,4.92
2023-04-07T23:17:58.434Z,4.89
2023-04-07T23:20:21.298Z,4.95
2023-04-07T23:22:43.863Z,4.85
2023-04-07T23:25:07.460Z,4.89
2023-04-07T23:27:30.126Z,4.88
2023-04-07T23:29:58.143Z,4.82
2023-04-07T23:32:21.486Z,4.79
2023-04-07T23:34:44.397Z,4.84
2023-04-07T23:37:07.009Z,4.79
2023-04-07T23:39:29.715Z,4.82
2023-04-07T23:41:52.437Z,4.84
2023-04-07T23:44:15.027Z,4.82
2023-04-07T23:46:37.574Z,4.79
2023-04-07T23:49:00.608Z,4.84
2023-04-07T23:51:24.021Z,4.85
2023-04-07T23:53:46.952Z,4.84
2023-04-07T23:56:09.716Z,4.79
2023-04-07T23:58:32.511Z,4.79
